Time;durP1;ratioP1;P1;durP2;ratioP2;P2;SDS_P1;SDS_P2;PMS_P1;PMS_P2;Temp;Humidity;BMP_temperature;BMP_pressure;BME280_temperature;BME280_humidity;BME280_pressure;Samples;Min_cycle;Max_cycle;Signal;HPM_P1;HPM_P2
2021/07/09 00:01:53;;;;;;;0.70;0.30;;;18.70;99.90;;;;;;5055380;28;20228;-86
2021/07/09 00:04:21;;;;;;;1.70;0.80;;;18.70;99.90;;;;;;5057451;28;20209;-86
2021/07/09 00:06:47;;;;;;;0.30;0.30;;;18.70;99.90;;;;;;5052003;28;20201;-86
2021/07/09 00:09:13;;;;;;;0.47;0.47;;;18.50;99.90;;;;;;5053838;28;20189;-86
2021/07/09 00:11:40;;;;;;;0.20;0.20;;;18.40;99.90;;;;;;5052798;28;20539;-86
2021/07/09 00:14:11;;;;;;;0.13;0.13;;;18.50;99.90;;;;;;5035848;28;20209;-87
2021/07/09 00:16:49;;;;;;;0.27;0.27;;;18.50;99.90;;;;;;5035697;28;20661;-86
2021/07/09 00:19:15;;;;;;;0.23;0.23;;;18.50;99.90;;;;;;5052473;28;20209;-87
2021/07/09 00:21:41;;;;;;;0.37;0.37;;;18.50;99.90;;;;;;5032439;28;20178;-86
2021/07/09 00:24:08;;;;;;;0.13;0.13;;;18.50;99.90;;;;;;5030371;28;20205;-86
2021/07/09 00:26:35;;;;;;;0.87;0.87;;;18.60;99.90;;;;;;5034716;28;20179;-86
2021/07/09 00:29:00;;;;;;;1.30;0.30;;;18.70;99.90;;;;;;5053036;28;20275;-86
2021/07/09 00:31:30;;;;;;;0.10;0.10;;;18.60;99.90;;;;;;5053334;28;20665;-87
2021/07/09 00:33:57;;;;;;;0.20;0.20;;;18.70;99.90;;;;;;5064000;28;20200;-86
2021/07/09 00:36:23;;;;;;;0.10;0.10;;;18.70;99.90;;;;;;5053435;28;20214;-87
2021/07/09 00:38:48;;;;;;;0.30;0.30;;;18.70;99.90;;;;;;5052647;28;20249;-86
2021/07/09 00:41:14;;;;;;;0.30;0.30;;;18.80;99.90;;;;;;5035641;28;20185;-86
2021/07/09 00:43:40;;;;;;;0.33;0.33;;;18.70;99.90;;;;;;5037815;28;20197;-86
2021/07/09 00:46:06;;;;;;;0.30;0.30;;;18.70;99.90;;;;;;5053309;28;20236;-86
2021/07/09 00:48:32;;;;;;;0.20;0.20;;;18.80;99.90;;;;;;5034677;28;20235;-87
2021/07/09 00:51:38;;;;;;;0.53;0.53;;;18.70;99.90;;;;;;5035298;28;20185;-86
2021/07/09 00:54:04;;;;;;;0.27;0.27;;;18.80;99.90;;;;;;5045523;28;20356;-86
2021/07/09 00:56:31;;;;;;;0.30;0.30;;;18.70;99.90;;;;;;5035412;28;20276;-86
2021/07/09 00:58:58;;;;;;;0.20;0.20;;;18.70;99.90;;;;;;5052360;28;20276;-89
2021/07/09 01:01:23;;;;;;;1.73;1.60;;;18.60;99.90;;;;;;5036570;28;20178;-87
2021/07/09 01:03:49;;;;;;;0.40;0.40;;;18.60;99.90;;;;;;5034865;28;20212;-86
2021/07/09 01:06:16;;;;;;;0.20;0.20;;;18.60;99.90;;;;;;5039574;28;20700;-86
2021/07/09 01:08:41;;;;;;;0.30;0.30;;;18.60;99.90;;;;;;5050781;28;20213;-86
2021/07/09 01:11:09;;;;;;;0.10;0.10;;;18.60;99.90;;;;;;5033261;28;20282;-86
2021/07/09 01:13:34;;;;;;;0.20;0.20;;;18.60;99.90;;;;;;5018336;28;20282;-86
2021/07/09 01:16:00;;;;;;;0.30;0.30;;;18.60;99.90;;;;;;5029732;28;20681;-86
2021/07/09 01:18:26;;;;;;;0.40;0.40;;;18.70;99.90;;;;;;5038953;28;20233;-87
2021/07/09 01:20:52;;;;;;;0.20;0.20;;;18.70;99.90;;;;;;5052730;28;20192;-87
2021/07/09 01:23:20;;;;;;;0.20;0.20;;;18.80;99.90;;;;;;5034781;28;20201;-86
2021/07/09 01:25:46;;;;;;;0.20;0.20;;;18.80;99.90;;;;;;5034724;28;20190;-87
2021/07/09 01:28:28;;;;;;;1.00;0.43;;;18.80;99.90;;;;;;5033993;28;20209;-87
2021/07/09 01:30:53;;;;;;;0.23;0.23;;;18.80;99.90;;;;;;5028321;28;20189;-86
2021/07/09 01:33:19;;;;;;;0.27;0.27;;;18.70;99.90;;;;;;5051043;28;20192;-87
2021/07/09 01:35:45;;;;;;;0.63;0.40;;;18.70;99.90;;;;;;5052189;28;20205;-87
2021/07/09 01:38:10;;;;;;;0.60;0.53;;;18.60;99.90;;;;;;5049975;28;20181;-87
2021/07/09 01:40:38;;;;;;;0.27;0.27;;;18.50;99.90;;;;;;5031994;28;20185;-86
2021/07/09 01:43:05;;;;;;;0.10;0.10;;;18.50;99.90;;;;;;5050985;28;20220;-87
2021/07/09 01:45:31;;;;;;;0.30;0.30;;;18.50;99.90;;;;;;5052038;28;20205;-87
2021/07/09 01:47:57;;;;;;;0.20;0.20;;;18.50;99.90;;;;;;5050337;28;20227;-87
2021/07/09 01:50:25;;;;;;;0.27;0.20;;;18.50;99.90;;;;;;5052432;28;20178;-87
2021/07/09 01:52:51;;;;;;;0.40;0.40;;;18.40;99.90;;;;;;5051437;28;20257;-88
2021/07/09 01:55:17;;;;;;;0.33;0.30;;;18.40;99.90;;;;;;5051035;28;20221;-88
2021/07/09 01:57:44;;;;;;;0.73;0.50;;;18.50;99.90;;;;;;5033317;28;20245;-87
2021/07/09 02:00:12;;;;;;;0.20;0.20;;;18.40;99.90;;;;;;5054396;28;20265;-87
2021/07/09 02:02:40;;;;;;;0.20;0.20;;;18.50;99.90;;;;;;5050608;28;20223;-87
2021/07/09 02:05:08;;;;;;;0.20;0.20;;;18.50;99.90;;;;;;5034386;28;20205;-87
2021/07/09 02:07:34;;;;;;;1.90;0.30;;;18.40;99.90;;;;;;5033457;28;20185;-87
2021/07/09 02:09:59;;;;;;;0.30;0.30;;;18.50;99.90;;;;;;5050720;28;20193;-87
2021/07/09 02:12:27;;;;;;;0.60;0.30;;;18.40;99.90;;;;;;5036792;28;20185;-89
2021/07/09 02:14:54;;;;;;;0.20;0.20;;;18.50;99.90;;;;;;5038193;28;20307;-86
2021/07/09 02:17:21;;;;;;;0.30;0.30;;;18.30;99.90;;;;;;5054233;28;20194;-86
2021/07/09 02:19:55;;;;;;;1.07;0.30;;;18.40;99.90;;;;;;5054588;28;20243;-86
2021/07/09 02:22:21;;;;;;;0.23;0.23;;;18.40;99.90;;;;;;5037546;28;20668;-87
2021/07/09 02:24:49;;;;;;;0.20;0.20;;;18.20;99.90;;;;;;5055597;28;20284;-86
2021/07/09 02:27:15;;;;;;;1.03;0.60;;;18.20;99.90;;;;;;5054429;28;20186;-87
2021/07/09 02:29:41;;;;;;;0.40;0.23;;;18.20;99.90;;;;;;5055901;28;20186;-86
2021/07/09 02:32:11;;;;;;;0.90;0.33;;;18.20;99.90;;;;;;5044477;28;20211;-86
2021/07/09 02:34:38;;;;;;;0.50;0.50;;;18.00;99.90;;;;;;5055692;28;20217;-86
2021/07/09 02:37:05;;;;;;;0.20;0.20;;;18.00;99.90;;;;;;5054757;28;20650;-88
2021/07/09 02:39:31;;;;;;;0.20;0.20;;;18.00;99.90;;;;;;5037520;28;20186;-87
2021/07/09 02:41:57;;;;;;;0.50;0.40;;;18.10;99.90;;;;;;5054554;28;20190;-86
2021/07/09 02:44:24;;;;;;;0.27;0.27;;;18.00;99.90;;;;;;5037190;28;20201;-87
2021/07/09 02:46:51;;;;;;;0.23;0.23;;;17.80;99.90;;;;;;5037074;28;20196;-86
2021/07/09 02:49:18;;;;;;;0.40;0.40;;;17.90;99.90;;;;;;5037411;28;20193;-87
2021/07/09 02:51:44;;;;;;;0.40;0.40;;;18.00;99.90;;;;;;5034176;28;20217;-88
2021/07/09 02:54:10;;;;;;;0.30;0.30;;;18.00;99.90;;;;;;5037166;28;20582;-86
2021/07/09 02:56:36;;;;;;;0.33;0.33;;;17.90;99.90;;;;;;5054627;28;20214;-88
2021/07/09 02:59:02;;;;;;;0.80;0.70;;;17.80;99.90;;;;;;5055118;28;20527;-86
2021/07/09 03:01:28;;;;;;;0.30;0.30;;;17.80;99.90;;;;;;5053240;28;20190;-86
2021/07/09 03:03:54;;;;;;;0.20;0.20;;;17.80;99.90;;;;;;5036689;28;20281;-86
2021/07/09 03:06:23;;;;;;;0.57;0.57;;;17.90;99.90;;;;;;5053572;28;20675;-87
2021/07/09 03:09:08;;;;;;;0.20;0.20;;;17.80;99.90;;;;;;5049159;28;20185;-86
2021/07/09 03:11:34;;;;;;;0.20;0.20;;;17.70;99.90;;;;;;5037864;28;20189;-85
2021/07/09 03:14:01;;;;;;;0.47;0.47;;;17.70;99.90;;;;;;5041184;28;20209;-86
2021/07/09 03:16:26;;;;;;;0.60;0.60;;;17.70;99.90;;;;;;5064726;28;20181;-86
2021/07/09 03:18:52;;;;;;;0.20;0.20;;;17.70;99.90;;;;;;5040455;28;20206;-86
2021/07/09 03:21:18;;;;;;;0.83;0.83;;;17.70;99.90;;;;;;5055687;28;20178;-86
2021/07/09 03:23:43;;;;;;;0.37;0.37;;;17.70;99.90;;;;;;5052859;28;20207;-86
2021/07/09 03:26:09;;;;;;;0.87;0.40;;;17.60;99.90;;;;;;5036493;28;20225;-86
2021/07/09 03:28:35;;;;;;;0.40;0.40;;;17.70;99.90;;;;;;5053941;28;20595;-88
2021/07/09 03:31:00;;;;;;;2.00;0.90;;;17.70;99.90;;;;;;5054305;28;20188;-86
2021/07/09 03:33:26;;;;;;;0.77;0.50;;;17.70;99.90;;;;;;5054104;28;20194;-86
2021/07/09 03:35:52;;;;;;;0.50;0.33;;;17.80;99.90;;;;;;5052660;28;20555;-86
2021/07/09 03:38:19;;;;;;;0.43;0.43;;;17.80;99.90;;;;;;5044336;28;20216;-85
2021/07/09 03:40:45;;;;;;;0.17;0.17;;;17.80;99.90;;;;;;5056486;28;20558;-85
2021/07/09 03:43:10;;;;;;;1.23;0.47;;;17.80;99.90;;;;;;5042999;28;20185;-86
2021/07/09 03:45:36;;;;;;;0.23;0.23;;;17.70;99.90;;;;;;5036391;28;20601;-85
2021/07/09 03:48:02;;;;;;;1.17;1.00;;;17.70;99.90;;;;;;5035204;28;20197;-86
2021/07/09 03:50:28;;;;;;;1.20;0.80;;;17.60;99.90;;;;;;5047697;28;20227;-86
2021/07/09 03:52:53;;;;;;;0.67;0.67;;;17.70;99.90;;;;;;5036001;28;20277;-87
2021/07/09 03:55:19;;;;;;;0.30;0.30;;;17.70;99.90;;;;;;5054213;28;20692;-86
2021/07/09 03:57:45;;;;;;;0.60;0.60;;;17.60;99.90;;;;;;5061895;28;20185;-87
2021/07/09 04:00:12;;;;;;;0.67;0.67;;;17.60;99.90;;;;;;5053778;28;20187;-86
2021/07/09 04:02:39;;;;;;;0.40;0.37;;;17.60;99.90;;;;;;5055071;28;20197;-87
2021/07/09 04:05:05;;;;;;;0.50;0.50;;;17.60;99.90;;;;;;5053576;28;20202;-86
2021/07/09 04:07:31;;;;;;;0.33;0.33;;;17.70;99.90;;;;;;5062520;28;20650;-86
2021/07/09 04:10:07;;;;;;;0.20;0.20;;;17.70;99.90;;;;;;5050619;28;20200;-86
2021/07/09 04:12:32;;;;;;;0.40;0.40;;;17.70;99.90;;;;;;5060522;28;20181;-86
2021/07/09 04:14:58;;;;;;;0.40;0.40;;;17.70;99.90;;;;;;5053104;28;20209;-86
2021/07/09 04:17:24;;;;;;;0.47;0.47;;;17.70;99.90;;;;;;5035282;28;20675;-89
2021/07/09 04:19:57;;;;;;;0.50;0.40;;;17.70;99.90;;;;;;5034986;28;20244;-85
2021/07/09 04:22:23;;;;;;;0.47;0.47;;;17.80;99.90;;;;;;5053351;28;20259;-86
2021/07/09 04:24:49;;;;;;;0.87;0.47;;;17.80;99.90;;;;;;5053150;28;20232;-86
2021/07/09 04:27:14;;;;;;;1.00;0.80;;;17.80;99.90;;;;;;5052833;28;20192;-86
2021/07/09 04:29:40;;;;;;;0.47;0.47;;;17.70;99.90;;;;;;5039018;28;20185;-86
2021/07/09 04:32:06;;;;;;;0.60;0.60;;;17.70;99.90;;;;;;5035259;28;20193;-86
2021/07/09 04:34:46;;;;;;;0.40;0.40;;;17.70;99.90;;;;;;5035217;28;20305;-85
2021/07/09 04:37:12;;;;;;;0.27;0.27;;;17.80;99.90;;;;;;5048090;28;20260;-86
2021/07/09 04:39:38;;;;;;;0.50;0.50;;;17.80;99.90;;;;;;5034922;28;20272;-86
2021/07/09 04:42:07;;;;;;;0.50;0.50;;;17.80;99.90;;;;;;5035318;28;20208;-86
2021/07/09 04:44:36;;;;;;;0.73;0.33;;;17.90;99.90;;;;;;5053011;28;20266;-86
2021/07/09 04:47:03;;;;;;;0.33;0.33;;;17.90;99.90;;;;;;5051411;28;20189;-86
2021/07/09 04:49:28;;;;;;;0.63;0.53;;;17.90;99.90;;;;;;5043882;28;20660;-86
2021/07/09 04:51:54;;;;;;;3.60;0.80;;;17.80;99.90;;;;;;5035039;28;20286;-85
2021/07/09 04:54:20;;;;;;;0.40;0.40;;;17.80;99.90;;;;;;5051670;28;20212;-86
2021/07/09 04:56:46;;;;;;;0.30;0.30;;;17.80;99.90;;;;;;5034360;28;20266;-86
2021/07/09 04:59:12;;;;;;;0.53;0.53;;;17.70;99.90;;;;;;5034949;28;20726;-86
2021/07/09 05:01:37;;;;;;;0.50;0.50;;;17.70;99.90;;;;;;5053163;28;20356;-86
2021/07/09 05:04:05;;;;;;;0.33;0.33;;;17.70;99.90;;;;;;5056339;28;20569;-87
2021/07/09 05:06:31;;;;;;;0.60;0.53;;;17.70;99.90;;;;;;5038518;28;20188;-87
2021/07/09 05:08:57;;;;;;;0.50;0.50;;;17.80;99.90;;;;;;5044524;28;20186;-86
2021/07/09 05:11:23;;;;;;;0.33;0.33;;;17.90;99.90;;;;;;5034537;28;20255;-86
2021/07/09 05:13:56;;;;;;;0.40;0.23;;;18.00;99.90;;;;;;5051027;28;20343;-86
2021/07/09 05:16:22;;;;;;;0.70;0.40;;;18.00;99.90;;;;;;5036360;28;20206;-86
2021/07/09 05:18:48;;;;;;;0.20;0.20;;;18.00;99.90;;;;;;5034170;28;20197;-85
2021/07/09 05:21:14;;;;;;;0.47;0.30;;;18.10;99.90;;;;;;5052781;28;20192;-85
2021/07/09 05:23:39;;;;;;;0.30;0.30;;;18.10;99.90;;;;;;5053142;28;20211;-88
2021/07/09 05:26:05;;;;;;;0.40;0.40;;;18.20;99.90;;;;;;5034467;28;20197;-85
2021/07/09 05:28:31;;;;;;;0.40;0.33;;;17.90;99.90;;;;;;5034149;28;20196;-86
2021/07/09 05:30:56;;;;;;;0.30;0.30;;;18.00;99.90;;;;;;5037981;28;20280;-87
2021/07/09 05:33:22;;;;;;;0.40;0.33;;;18.10;99.90;;;;;;5050879;28;20271;-86
2021/07/09 05:35:48;;;;;;;0.67;0.67;;;18.20;99.90;;;;;;5050986;28;20254;-88
2021/07/09 05:38:14;;;;;;;0.33;0.33;;;18.30;99.90;;;;;;5032996;28;20178;-87
2021/07/09 05:40:40;;;;;;;0.30;0.30;;;18.40;99.90;;;;;;5045238;28;20191;-86
2021/07/09 05:43:05;;;;;;;0.43;0.43;;;18.40;99.90;;;;;;5051913;28;20268;-86
2021/07/09 05:45:31;;;;;;;0.30;0.30;;;18.50;99.90;;;;;;5034763;28;20220;-86
2021/07/09 05:47:57;;;;;;;0.50;0.50;;;18.50;99.90;;;;;;5055463;28;20225;-86
2021/07/09 05:50:23;;;;;;;2.57;0.73;;;18.50;99.90;;;;;;5047753;28;20186;-86
2021/07/09 05:52:49;;;;;;;1.23;0.60;;;18.60;99.90;;;;;;5049267;28;20355;-86
2021/07/09 05:55:15;;;;;;;1.07;1.07;;;18.70;99.90;;;;;;5038827;28;20205;-86
2021/07/09 05:57:41;;;;;;;0.20;0.20;;;18.80;99.90;;;;;;5033263;28;20635;-86
2021/07/09 06:00:08;;;;;;;0.63;0.63;;;18.70;99.90;;;;;;5055707;28;20192;-86
2021/07/09 06:02:34;;;;;;;0.77;0.77;;;18.90;99.90;;;;;;5060394;28;20192;-87
2021/07/09 06:05:00;;;;;;;1.23;0.97;;;18.80;99.90;;;;;;5052895;28;20278;-86
2021/07/09 06:07:26;;;;;;;0.53;0.53;;;18.90;99.90;;;;;;5030581;28;20185;-86
2021/07/09 06:09:51;;;;;;;0.50;0.50;;;18.80;99.90;;;;;;5051093;28;20193;-86
2021/07/09 06:12:17;;;;;;;0.63;0.63;;;18.80;99.90;;;;;;5036618;28;20193;-86
2021/07/09 06:14:45;;;;;;;1.03;0.70;;;18.90;99.90;;;;;;5035661;28;20211;-85
2021/07/09 06:17:10;;;;;;;0.47;0.47;;;18.80;99.90;;;;;;5051741;28;20186;-85
2021/07/09 06:19:36;;;;;;;0.47;0.40;;;18.90;99.90;;;;;;5052916;28;20189;-85
2021/07/09 06:22:02;;;;;;;0.87;0.80;;;18.90;99.90;;;;;;5057311;28;20184;-86
2021/07/09 06:24:28;;;;;;;0.80;0.60;;;18.80;99.90;;;;;;5036759;28;20588;-85
2021/07/09 06:26:53;;;;;;;0.67;0.37;;;18.90;99.90;;;;;;5050647;28;20193;-85
2021/07/09 06:29:19;;;;;;;0.80;0.80;;;18.90;99.90;;;;;;5043693;28;20186;-87
2021/07/09 06:31:45;;;;;;;0.43;0.43;;;19.00;99.90;;;;;;5054164;28;20217;-86
2021/07/09 06:34:10;;;;;;;0.83;0.83;;;19.00;99.90;;;;;;5034146;28;20296;-86
2021/07/09 06:36:36;;;;;;;0.60;0.60;;;19.10;99.90;;;;;;5050487;28;20235;-86
2021/07/09 06:39:02;;;;;;;0.63;0.50;;;19.00;99.90;;;;;;5034745;28;20669;-85
2021/07/09 06:41:28;;;;;;;0.63;0.63;;;19.10;99.90;;;;;;5036421;28;20573;-85
2021/07/09 06:43:54;;;;;;;0.97;0.70;;;19.30;99.90;;;;;;5051834;28;20213;-86
2021/07/09 06:46:19;;;;;;;0.50;0.50;;;19.40;99.90;;;;;;5051690;28;20657;-85
2021/07/09 06:48:45;;;;;;;0.47;0.47;;;19.30;99.90;;;;;;5034272;28;20182;-85
2021/07/09 06:51:11;;;;;;;0.63;0.63;;;19.30;99.90;;;;;;5046437;28;20606;-85
2021/07/09 06:53:37;;;;;;;1.03;1.03;;;19.30;99.90;;;;;;5056041;28;20308;-86
2021/07/09 06:56:04;;;;;;;1.33;1.23;;;19.20;99.90;;;;;;5051222;28;20294;-85
2021/07/09 06:58:32;;;;;;;1.20;0.90;;;19.20;99.90;;;;;;5031693;28;20181;-87
2021/07/09 07:00:58;;;;;;;1.37;0.90;;;19.20;99.90;;;;;;5034579;28;20178;-85
2021/07/09 07:03:23;;;;;;;0.57;0.57;;;19.30;99.90;;;;;;5037511;28;20185;-85
2021/07/09 07:05:49;;;;;;;1.57;1.47;;;19.40;99.90;;;;;;5037788;28;20264;-85
2021/07/09 07:08:25;;;;;;;1.70;1.00;;;19.40;99.90;;;;;;5036764;28;20189;-85
2021/07/09 07:10:51;;;;;;;1.27;1.17;;;19.40;99.90;;;;;;5047085;28;20192;-85
2021/07/09 07:13:22;;;;;;;1.37;1.13;;;19.40;99.90;;;;;;5053653;28;20191;-85
2021/07/09 07:15:48;;;;;;;1.80;1.67;;;19.30;99.90;;;;;;5036691;28;20205;-85
2021/07/09 07:18:13;;;;;;;0.87;0.87;;;19.30;99.90;;;;;;5038364;28;20190;-85
2021/07/09 07:20:41;;;;;;;1.60;1.50;;;19.30;99.90;;;;;;5043856;28;20669;-85
2021/07/09 07:23:15;;;;;;;1.27;1.23;;;19.30;99.90;;;;;;5030588;28;20246;-86
2021/07/09 07:25:41;;;;;;;1.43;1.23;;;19.40;99.90;;;;;;5054944;28;21019;-85
2021/07/09 07:28:07;;;;;;;1.63;1.53;;;19.40;99.90;;;;;;5054202;28;20654;-86
2021/07/09 07:30:34;;;;;;;1.90;1.33;;;19.40;99.90;;;;;;5036735;28;20190;-86
2021/07/09 07:33:00;;;;;;;12.93;1.60;;;19.50;99.90;;;;;;5036472;28;20271;-86
2021/07/09 07:35:26;;;;;;;1.70;0.90;;;19.40;99.90;;;;;;5036569;28;20216;-86
2021/07/09 07:37:52;;;;;;;0.83;0.83;;;19.40;99.90;;;;;;5054199;28;20170;-86
2021/07/09 07:40:23;;;;;;;1.20;1.10;;;19.40;99.90;;;;;;5036162;28;20180;-86
2021/07/09 07:42:49;;;;;;;0.70;0.70;;;19.40;99.90;;;;;;5029203;28;20227;-87
2021/07/09 07:45:15;;;;;;;0.80;0.80;;;19.50;99.90;;;;;;5054394;28;20217;-86
2021/07/09 07:47:41;;;;;;;1.10;1.00;;;19.60;99.90;;;;;;5034474;28;20191;-86
2021/07/09 07:50:08;;;;;;;0.80;0.80;;;19.60;99.90;;;;;;5035885;28;20201;-87
2021/07/09 07:52:33;;;;;;;2.10;1.37;;;19.70;99.90;;;;;;5052550;28;20178;-87
2021/07/09 07:55:01;;;;;;;0.60;0.60;;;19.60;99.90;;;;;;5054130;28;20205;-86
2021/07/09 07:57:27;;;;;;;1.10;0.97;;;19.50;99.90;;;;;;5046074;28;20189;-86
2021/07/09 07:59:53;;;;;;;0.80;0.80;;;19.60;99.90;;;;;;5053129;28;20185;-86
2021/07/09 08:02:36;;;;;;;0.70;0.70;;;19.60;99.90;;;;;;5053454;28;20265;-85
2021/07/09 08:05:01;;;;;;;0.83;0.80;;;19.70;99.90;;;;;;5053848;28;20212;-86
2021/07/09 08:07:30;;;;;;;1.10;1.00;;;19.50;99.90;;;;;;5036126;28;20180;-86
2021/07/09 08:09:56;;;;;;;0.70;0.70;;;19.60;99.90;;;;;;5051920;28;20193;-85
2021/07/09 08:12:32;;;;;;;1.07;1.03;;;19.60;99.90;;;;;;5052032;28;20608;-85
2021/07/09 08:15:04;;;;;;;0.60;0.60;;;19.60;99.90;;;;;;5034689;28;20205;-86
2021/07/09 08:17:30;;;;;;;0.43;0.43;;;19.60;99.90;;;;;;5066298;28;20251;-87
2021/07/09 08:20:07;;;;;;;0.93;0.93;;;19.40;99.90;;;;;;5054155;28;20179;-86
2021/07/09 08:22:36;;;;;;;0.70;0.70;;;19.70;99.90;;;;;;5067102;28;20181;-85
2021/07/09 08:25:04;;;;;;;0.60;0.60;;;19.80;99.90;;;;;;5060535;28;20805;-86
2021/07/09 08:27:29;;;;;;;1.10;1.00;;;19.80;99.90;;;;;;5042106;28;20178;-84
2021/07/09 08:29:55;;;;;;;1.37;1.27;;;19.90;99.90;;;;;;5039764;28;20180;-84
2021/07/09 08:32:20;;;;;;;1.00;0.93;;;20.00;99.90;;;;;;5055587;28;20229;-84
2021/07/09 08:34:46;;;;;;;1.87;0.90;;;20.10;99.90;;;;;;5042428;28;20236;-85
2021/07/09 08:37:12;;;;;;;0.67;0.57;;;19.90;99.90;;;;;;5073055;28;20261;-85
2021/07/09 08:39:37;;;;;;;1.10;0.97;;;19.90;99.90;;;;;;5037373;28;20187;-85
2021/07/09 08:42:03;;;;;;;1.17;0.90;;;20.00;99.90;;;;;;5048278;28;20256;-84
2021/07/09 08:44:29;;;;;;;0.83;0.80;;;20.20;99.90;;;;;;5058875;28;20689;-84
2021/07/09 08:46:56;;;;;;;0.70;0.70;;;20.30;99.90;;;;;;5038880;28;20173;-85
2021/07/09 08:49:22;;;;;;;1.07;1.00;;;20.40;99.90;;;;;;5061120;28;20221;-84
2021/07/09 08:51:48;;;;;;;1.07;0.90;;;20.50;99.90;;;;;;5058827;28;20182;-84
2021/07/09 08:54:17;;;;;;;0.67;0.67;;;20.50;99.90;;;;;;5055613;28;20263;-85
2021/07/09 08:56:44;;;;;;;1.53;1.37;;;20.40;99.90;;;;;;5058776;28;20190;-85
2021/07/09 08:59:09;;;;;;;0.80;0.80;;;20.50;99.90;;;;;;5069302;28;20185;-84
2021/07/09 09:02:02;;;;;;;1.73;0.70;;;20.50;99.90;;;;;;5038801;28;20188;-85
2021/07/09 09:04:28;;;;;;;1.17;1.17;;;20.40;99.90;;;;;;5040368;28;20204;-86
2021/07/09 09:07:02;;;;;;;1.13;1.03;;;20.50;99.90;;;;;;5035063;28;20265;-87
2021/07/09 09:09:29;;;;;;;1.17;1.17;;;20.70;99.90;;;;;;5035887;28;20201;-86
2021/07/09 09:12:25;;;;;;;1.10;0.80;;;20.80;99.90;;;;;;5036425;28;20190;-86
2021/07/09 09:14:51;;;;;;;1.43;0.80;;;20.80;99.90;;;;;;5034911;28;20799;-86
2021/07/09 09:17:37;;;;;;;1.07;1.03;;;21.00;99.90;;;;;;5034237;28;20225;-87
2021/07/09 09:20:12;;;;;;;1.40;1.10;;;21.20;99.90;;;;;;5034438;28;20215;-85
2021/07/09 09:22:55;;;;;;;1.23;0.83;;;21.40;99.90;;;;;;5051644;28;20186;-86
2021/07/09 09:25:29;;;;;;;1.10;1.00;;;21.50;99.90;;;;;;5060820;28;20208;-86
2021/07/09 09:28:06;;;;;;;0.73;0.73;;;21.50;99.90;;;;;;5035064;28;20302;-86
2021/07/09 09:30:34;;;;;;;1.23;0.80;;;21.70;99.90;;;;;;5067678;28;20193;-85
2021/07/09 09:33:02;;;;;;;3.50;1.17;;;22.20;99.90;;;;;;5041732;28;20653;-85
2021/07/09 09:35:41;;;;;;;2.03;1.10;;;21.90;99.90;;;;;;5041841;28;20213;-84
2021/07/09 09:38:09;;;;;;;1.13;1.10;;;22.30;99.90;;;;;;5048905;28;20231;-85
2021/07/09 09:40:37;;;;;;;1.07;1.00;;;22.40;99.90;;;;;;5053889;28;20523;-85
2021/07/09 09:43:09;;;;;;;1.30;1.20;;;22.50;99.90;;;;;;5035892;28;20616;-85
2021/07/09 09:45:37;;;;;;;1.10;1.00;;;22.80;99.90;;;;;;5056464;28;20205;-84
2021/07/09 09:48:12;;;;;;;3.00;2.53;;;22.70;99.90;;;;;;5045926;28;20208;-87
2021/07/09 09:50:49;;;;;;;1.23;0.87;;;22.60;99.90;;;;;;5052939;28;20220;-85
2021/07/09 09:53:16;;;;;;;2.37;1.40;;;22.90;99.90;;;;;;5035266;28;20556;-86
2021/07/09 09:55:43;;;;;;;1.30;1.23;;;23.10;99.90;;;;;;5033710;28;20202;-87
2021/07/09 09:58:10;;;;;;;0.73;0.73;;;23.00;99.90;;;;;;5033479;28;20185;-86
2021/07/09 10:01:13;;;;;;;0.60;0.60;;;23.10;99.90;;;;;;5037215;28;20178;-86
2021/07/09 10:03:39;;;;;;;1.43;1.33;;;23.20;99.90;;;;;;5067174;28;20205;-85
2021/07/09 10:06:05;;;;;;;0.70;0.70;;;23.10;99.90;;;;;;5041771;28;20203;-86
2021/07/09 10:08:31;;;;;;;4.07;1.87;;;23.30;99.90;;;;;;5033730;28;20356;-86
2021/07/09 10:10:57;;;;;;;1.00;1.00;;;23.50;99.90;;;;;;5033608;28;20276;-87
2021/07/09 10:13:28;;;;;;;2.33;1.30;;;23.30;99.90;;;;;;5043491;28;20262;-88
2021/07/09 10:15:55;;;;;;;1.23;1.20;;;22.90;99.90;;;;;;5046499;28;20204;-86
2021/07/09 10:18:22;;;;;;;0.83;0.83;;;22.90;99.90;;;;;;5050613;28;20197;-86
2021/07/09 10:20:48;;;;;;;1.30;1.10;;;22.80;99.90;;;;;;5033806;28;20208;-86
2021/07/09 10:23:17;;;;;;;0.93;0.93;;;23.00;99.90;;;;;;5034619;28;20181;-86
2021/07/09 10:25:46;;;;;;;2.23;1.27;;;23.10;99.90;;;;;;5037716;28;20272;-86
2021/07/09 10:28:15;;;;;;;0.87;0.70;;;23.20;99.90;;;;;;5033903;28;21623;-86
2021/07/09 10:30:42;;;;;;;2.20;1.53;;;23.10;99.90;;;;;;5032203;28;20190;-87
2021/07/09 10:33:26;;;;;;;0.80;0.80;;;23.20;99.90;;;;;;5058175;28;20322;-87
2021/07/09 10:35:52;;;;;;;1.10;0.83;;;23.20;99.90;;;;;;5034823;28;20209;-87
2021/07/09 10:38:19;;;;;;;1.30;1.20;;;23.40;99.90;;;;;;5052940;28;20242;-87
2021/07/09 10:40:45;;;;;;;1.10;0.87;;;23.60;99.90;;;;;;5037551;28;20193;-86
2021/07/09 10:43:11;;;;;;;0.60;0.60;;;23.50;99.90;;;;;;5061866;28;20298;-87
2021/07/09 10:45:41;;;;;;;2.10;1.37;;;23.30;99.90;;;;;;5039990;28;20314;-86
2021/07/09 10:48:17;;;;;;;1.17;0.87;;;23.20;99.90;;;;;;5040923;28;20276;-87
2021/07/09 10:50:46;;;;;;;0.53;0.53;;;23.10;99.90;;;;;;5053443;28;20181;-86
2021/07/09 10:53:13;;;;;;;1.90;1.40;;;23.30;99.90;;;;;;5056709;28;20190;-86
2021/07/09 10:55:46;;;;;;;0.63;0.60;;;23.10;99.90;;;;;;5059547;28;20219;-87
2021/07/09 10:58:19;;;;;;;1.00;0.90;;;22.90;99.90;;;;;;5068909;28;20231;-87
2021/07/09 11:01:21;;;;;;;1.43;1.33;;;23.10;99.90;;;;;;5051253;28;20188;-87
2021/07/09 11:03:53;;;;;;;0.80;0.80;;;23.20;99.90;;;;;;5060655;28;20746;-86
2021/07/09 11:06:36;;;;;;;0.80;0.80;;;23.00;99.90;;;;;;5053044;28;20635;-87
2021/07/09 11:09:13;;;;;;;1.10;0.83;;;23.30;99.90;;;;;;5039605;28;20185;-86
2021/07/09 11:11:46;;;;;;;1.00;0.97;;;23.50;99.90;;;;;;5056605;28;20235;-86
2021/07/09 11:14:20;;;;;;;1.20;0.80;;;23.00;99.90;;;;;;5046719;28;20206;-87
2021/07/09 11:17:00;;;;;;;0.77;0.77;;;22.20;99.90;;;;;;5059370;28;20177;-86
2021/07/09 11:19:35;;;;;;;1.73;1.20;;;22.30;99.90;;;;;;5042436;28;20192;-85
2021/07/09 11:22:07;;;;;;;1.70;0.80;;;22.10;99.90;;;;;;5058098;28;20185;-86
2021/07/09 11:24:42;;;;;;;0.90;0.90;;;22.40;99.90;;;;;;5056728;28;20227;-86
2021/07/09 11:27:10;;;;;;;0.73;0.73;;;23.00;99.90;;;;;;5056541;28;20552;-85
2021/07/09 11:29:42;;;;;;;1.13;1.00;;;23.70;99.90;;;;;;5039426;28;20182;-85
2021/07/09 11:32:12;;;;;;;1.20;1.10;;;24.00;99.90;;;;;;5056069;28;20209;-85
2021/07/09 11:34:43;;;;;;;1.10;0.70;;;23.90;99.90;;;;;;5038160;28;20292;-87
2021/07/09 11:37:30;;;;;;;1.27;1.10;;;23.90;99.90;;;;;;5050020;28;20189;-87
2021/07/09 11:39:58;;;;;;;0.80;0.80;;;23.80;99.90;;;;;;5036602;28;20228;-87
2021/07/09 11:42:27;;;;;;;0.60;0.60;;;24.10;99.90;;;;;;5053408;28;20186;-87
2021/07/09 11:45:12;;;;;;;1.13;1.03;;;24.30;99.90;;;;;;5035056;28;20210;-87
2021/07/09 11:47:40;;;;;;;0.67;0.67;;;24.10;99.90;;;;;;5034493;28;20159;-87
2021/07/09 11:50:07;;;;;;;0.93;0.80;;;24.30;99.90;;;;;;5047585;28;20670;-87
2021/07/09 11:52:35;;;;;;;0.80;0.80;;;24.50;99.90;;;;;;5054440;28;20193;-87
2021/07/09 11:55:09;;;;;;;1.30;0.60;;;24.60;99.90;;;;;;5035996;28;20218;-88
2021/07/09 11:57:37;;;;;;;0.53;0.53;;;24.30;99.90;;;;;;5036087;28;20204;-87
2021/07/09 12:00:07;;;;;;;0.80;0.77;;;24.70;99.90;;;;;;5036705;28;20178;-87
2021/07/09 12:02:33;;;;;;;0.93;0.93;;;24.30;99.90;;;;;;5052743;28;20213;-87
2021/07/09 12:05:04;;;;;;;1.47;1.00;;;24.30;99.90;;;;;;5052840;28;20253;-87
2021/07/09 12:07:36;;;;;;;1.70;1.00;;;25.00;99.90;;;;;;5032387;28;20182;-87
2021/07/09 12:10:20;;;;;;;0.97;0.97;;;25.50;99.90;;;;;;5052584;28;20185;-87
2021/07/09 12:13:00;;;;;;;1.20;1.10;;;25.30;99.90;;;;;;5052133;28;20200;-88
2021/07/09 12:15:34;;;;;;;0.47;0.47;;;24.80;99.90;;;;;;5035868;28;20241;-87
2021/07/09 12:18:08;;;;;;;1.00;0.67;;;24.70;99.90;;;;;;5051443;28;20228;-87
2021/07/09 12:20:39;;;;;;;0.67;0.67;;;24.70;99.90;;;;;;5064997;28;20661;-88
2021/07/09 12:23:07;;;;;;;1.00;0.87;;;24.90;99.90;;;;;;5046908;28;20188;-87
2021/07/09 12:25:35;;;;;;;0.33;0.33;;;24.70;99.90;;;;;;5043440;28;20246;-87
2021/07/09 12:28:12;;;;;;;0.40;0.40;;;24.60;99.90;;;;;;5038022;28;20181;-87
2021/07/09 12:30:41;;;;;;;1.77;1.20;;;24.70;99.90;;;;;;5068906;28;20185;-87
2021/07/09 12:33:25;;;;;;;1.43;1.03;;;24.50;99.90;;;;;;5035754;28;20273;-87
2021/07/09 12:36:02;;;;;;;1.90;1.47;;;24.10;99.90;;;;;;5035547;28;20205;-87
2021/07/09 12:38:29;;;;;;;0.97;0.93;;;23.50;99.90;;;;;;5044412;28;20204;-88
2021/07/09 12:41:02;;;;;;;1.87;1.43;;;23.30;99.90;;;;;;5062187;28;20252;-87
2021/07/09 12:43:29;;;;;;;2.30;1.30;;;23.10;99.90;;;;;;5053109;28;20174;-87
2021/07/09 12:46:06;;;;;;;2.30;1.77;;;23.00;99.90;;;;;;5035058;28;20608;-87
2021/07/09 12:48:40;;;;;;;0.93;0.93;;;23.00;99.90;;;;;;5034952;28;20254;-87
2021/07/09 12:51:23;;;;;;;0.90;0.90;;;23.00;99.90;;;;;;5034250;28;20229;-86
2021/07/09 12:54:13;;;;;;;1.77;0.80;;;22.80;99.90;;;;;;5052729;28;20201;-86
2021/07/09 12:56:41;;;;;;;0.60;0.50;;;22.80;99.90;;;;;;5036313;28;20220;-88